createdAt,value
2022-10-25T03:59:20.053Z,63.64
2022-10-25T04:00:19.400Z,63.64
2022-10-25T04:01:18.527Z,63.82
2022-10-25T04:02:20.033Z,64.21
2022-10-25T04:03:19.495Z,64.31
2022-10-25T04:04:18.358Z,64.31
2022-10-25T04:05:19.979Z,64.31
2022-10-25T04:06:20.010Z,64.69
2022-10-25T04:07:18.342Z,64.21
2022-10-25T04:08:19.997Z,64.21
2022-10-25T04:09:18.336Z,64.50
2022-10-25T04:10:19.987Z,64.31
2022-10-25T04:11:19.512Z,64.59
2022-10-25T04:12:20.000Z,64.79
2022-10-25T04:13:20.004Z,65.27
2022-10-25T04:14:19.301Z,64.79
2022-10-25T04:15:20.017Z,64.79
2022-10-25T04:16:19.168Z,64.98
2022-10-25T04:17:20.007Z,64.98
2022-10-25T04:18:20.006Z,64.98
2022-10-25T04:19:18.292Z,64.89
2022-10-25T04:20:19.287Z,64.69
2022-10-25T04:21:18.276Z,64.59
2022-10-25T04:22:18.282Z,64.50
2022-10-25T04:23:20.012Z,64.98
2022-10-25T04:24:19.265Z,64.59
2022-10-25T04:25:20.030Z,64.98
2022-10-25T04:26:18.256Z,64.63
2022-10-25T04:27:18.258Z,64.69
2022-10-25T04:28:18.257Z,65.20
2022-10-25T04:29:20.026Z,64.98
2022-10-25T04:30:20.051Z,65.11
2022-10-25T04:31:20.017Z,65.11
2022-10-25T04:33:20.045Z,65.11
2022-10-25T04:34:20.010Z,65.11
2022-10-25T04:35:20.030Z,65.11
2022-10-25T04:36:20.061Z,64.63
2022-10-25T04:37:20.017Z,65.11
2022-10-25T04:38:20.053Z,64.63
2022-10-25T04:39:18.209Z,64.73
2022-10-25T04:40:24.015Z,65.20
2022-10-25T04:41:20.036Z,64.63
2022-10-25T04:42:20.068Z,65.20
2022-10-25T04:43:20.031Z,65.01
2022-10-25T04:44:20.041Z,64.63
2022-10-25T04:45:20.032Z,64.63
2022-10-25T04:46:20.032Z,64.73
2022-10-25T04:47:20.063Z,65.11
2022-10-25T04:48:20.069Z,64.92
2022-10-25T04:49:20.034Z,64.92
2022-10-25T04:50:20.206Z,64.92
2022-10-25T04:51:20.038Z,64.92
2022-10-25T04:52:20.026Z,64.73
2022-10-25T04:53:20.030Z,64.82
2022-10-25T04:54:20.045Z,64.73
2022-10-25T04:55:18.173Z,64.92
2022-10-25T04:56:18.161Z,64.92
2022-10-25T04:57:18.180Z,65.01
2022-10-25T04:58:18.145Z,65.20
2022-10-25T04:59:20.057Z,65.01
2022-10-25T05:00:18.152Z,65.01
2022-10-25T05:01:18.266Z,64.92
2022-10-25T05:02:20.039Z,65.01
2022-10-25T05:03:20.115Z,64.73
2022-10-25T05:04:20.076Z,64.56
2022-10-25T05:05:20.041Z,64.86
2022-10-25T05:06:20.035Z,64.37
2022-10-25T05:07:20.042Z,65.30
2022-10-25T05:08:20.037Z,64.82
2022-10-25T05:09:20.054Z,64.63
2022-10-25T05:10:20.062Z,64.76
2022-10-25T05:11:20.102Z,64.63
2022-10-25T05:12:20.084Z,64.66
2022-10-25T05:13:20.052Z,65.14
2022-10-25T05:14:20.060Z,64.53
2022-10-25T05:15:20.071Z,65.14
2022-10-25T05:16:20.067Z,64.66
2022-10-25T05:17:20.061Z,65.20
2022-10-25T05:18:20.080Z,64.43
2022-10-25T05:19:20.055Z,64.82
2022-10-25T05:20:20.088Z,64.82
2022-10-25T05:21:20.123Z,64.76
2022-10-25T05:22:20.051Z,64.73
2022-10-25T05:23:20.066Z,64.76
2022-10-25T05:24:19.055Z,64.73
2022-10-25T05:25:19.065Z,64.56
2022-10-25T05:26:19.549Z,64.66
2022-10-25T05:27:19.570Z,64.47
2022-10-25T05:28:18.047Z,64.66
2022-10-25T05:29:18.066Z,64.86
2022-10-25T05:30:19.571Z,64.66
2022-10-25T05:31:19.084Z,64.56
2022-10-25T05:32:19.574Z,64.28
2022-10-25T05:33:18.038Z,64.56
2022-10-25T05:34:19.080Z,64.47
2022-10-25T05:35:18.038Z,64.37
2022-10-25T05:36:19.560Z,64.47
2022-10-25T05:37:18.032Z,64.47
2022-10-25T05:38:19.561Z,64.95
2022-10-25T05:39:19.607Z,64.56
2022-10-25T05:40:19.063Z,64.37
2022-10-25T05:41:19.586Z,64.37
2022-10-25T05:42:19.581Z,64.66
2022-10-25T05:43:18.005Z,64.37
2022-10-25T05:44:19.590Z,64.37
2022-10-25T05:45:19.591Z,64.37
2022-10-25T05:46:19.572Z,64.76
2022-10-25T05:47:19.580Z,64.47
2022-10-25T05:48:19.583Z,64.47
2022-10-25T05:49:19.588Z,64.47
2022-10-25T05:50:19.083Z,64.37
2022-10-25T05:51:33.118Z,64.56
2022-10-25T05:52:19.591Z,64.47
2022-10-25T05:53:19.626Z,64.56
2022-10-25T05:54:18.970Z,64.47
2022-10-25T05:55:19.578Z,64.47
2022-10-25T05:56:19.591Z,64.47
2022-10-25T05:57:19.591Z,64.47
2022-10-25T05:58:17.958Z,64.76
2022-10-25T05:59:17.995Z,64.56
2022-10-25T06:00:17.997Z,64.47
2022-10-25T06:01:18.147Z,64.37
2022-10-25T06:02:19.789Z,64.56
2022-10-25T06:03:17.946Z,64.56
2022-10-25T06:04:19.605Z,64.28
2022-10-25T06:05:19.599Z,64.37
2022-10-25T06:06:17.926Z,64.37
2022-10-25T06:07:19.624Z,64.37
2022-10-25T06:08:19.598Z,64.28
2022-10-25T06:09:19.620Z,64.47
2022-10-25T06:10:19.587Z,64.28
2022-10-25T06:11:19.594Z,64.37
2022-10-25T06:12:19.607Z,64.56
2022-10-25T06:13:19.595Z,64.37
2022-10-25T06:14:17.909Z,64.28
2022-10-25T06:15:19.606Z,64.56
2022-10-25T06:16:19.598Z,64.28
2022-10-25T06:17:19.613Z,64.47
2022-10-25T06:18:17.897Z,64.47
2022-10-25T06:19:19.612Z,64.56
2022-10-25T06:20:19.616Z,64.47
2022-10-25T06:21:18.886Z,64.47
2022-10-25T06:22:19.601Z,64.37
2022-10-25T06:23:19.611Z,64.66
2022-10-25T06:24:19.602Z,64.37
2022-10-25T06:25:19.611Z,64.56
2022-10-25T06:26:19.651Z,64.56
2022-10-25T06:27:19.606Z,64.76
2022-10-25T06:28:19.614Z,64.37
2022-10-25T06:29:19.617Z,64.18
2022-10-25T06:30:19.737Z,64.37
2022-10-25T06:31:19.628Z,64.76
2022-10-25T06:32:19.607Z,64.66
2022-10-25T06:33:17.853Z,64.66
2022-10-25T06:34:17.844Z,64.47
2022-10-25T06:35:17.840Z,64.18
2022-10-25T06:36:19.126Z,64.18
2022-10-25T06:37:19.640Z,64.08
2022-10-25T06:38:19.675Z,64.47
2022-10-25T06:39:18.833Z,64.86
2022-10-25T06:40:19.633Z,64.47
2022-10-25T06:41:19.674Z,64.56
2022-10-25T06:42:17.811Z,64.56
2022-10-25T06:43:19.621Z,64.18
2022-10-25T06:44:19.738Z,64.08
2022-10-25T06:45:19.618Z,64.56
2022-10-25T06:46:19.650Z,64.28
2022-10-25T06:47:19.617Z,64.56
2022-10-25T06:48:17.809Z,64.76
2022-10-25T06:49:17.791Z,64.56
2022-10-25T06:50:17.793Z,64.76
2022-10-25T06:51:19.636Z,64.56
2022-10-25T06:52:17.797Z,64.47
2022-10-25T06:53:17.783Z,64.76
2022-10-25T06:54:17.774Z,64.86
2022-10-25T06:55:17.802Z,64.56
2022-10-25T06:56:17.769Z,64.56
2022-10-25T06:57:19.656Z,64.47
2022-10-25T06:58:17.767Z,64.56
2022-10-25T06:59:17.758Z,64.56
2022-10-25T07:00:17.774Z,64.47
2022-10-25T07:01:17.902Z,64.56
2022-10-25T07:02:19.772Z,64.66
2022-10-25T07:03:17.756Z,64.76
2022-10-25T07:04:17.748Z,64.86
2022-10-25T07:05:17.742Z,64.56
2022-10-25T07:06:17.801Z,64.86
2022-10-25T07:07:19.648Z,63.98
2022-10-25T07:08:17.732Z,64.18
2022-10-25T07:09:19.665Z,64.47
2022-10-25T07:10:17.749Z,64.08
2022-10-25T07:11:17.755Z,64.18
2022-10-25T07:12:19.672Z,63.98
2022-10-25T07:13:17.718Z,63.98
2022-10-25T07:14:19.652Z,64.28
2022-10-25T07:16:19.679Z,64.18
2022-10-25T07:17:17.715Z,64.18
2022-10-25T07:18:19.645Z,64.66
2022-10-25T07:19:19.646Z,64.37
2022-10-25T07:20:19.659Z,64.28
2022-10-25T07:21:19.691Z,64.47
2022-10-25T07:22:19.665Z,64.37
2022-10-25T07:23:19.668Z,64.37
2022-10-25T07:24:19.675Z,64.47
2022-10-25T07:25:19.677Z,64.37
2022-10-25T07:26:19.664Z,64.08
2022-10-25T07:27:19.663Z,64.02
2022-10-25T07:28:19.652Z,64.08
2022-10-25T07:29:18.660Z,64.40
2022-10-25T07:30:19.156Z,64.40
2022-10-25T07:31:19.170Z,64.59
2022-10-25T07:32:19.183Z,63.92
2022-10-25T07:33:19.156Z,63.73
2022-10-25T07:34:19.207Z,64.31
2022-10-25T07:35:19.161Z,64.21
2022-10-25T07:36:17.656Z,63.92
2022-10-25T07:37:19.175Z,63.82
2022-10-25T07:38:17.639Z,63.73
2022-10-25T07:39:19.205Z,63.82
2022-10-25T07:40:19.173Z,63.82
2022-10-25T07:41:19.188Z,63.82
2022-10-25T07:42:19.210Z,63.73
2022-10-25T07:43:19.276Z,63.82
2022-10-25T07:44:23.934Z,64.31
2022-10-25T07:45:22.321Z,64.15
2022-10-25T07:46:19.183Z,64.11
2022-10-25T07:47:19.189Z,63.73
2022-10-25T07:48:19.376Z,64.11
2022-10-25T07:49:18.700Z,63.92
2022-10-25T07:50:19.203Z,63.76
2022-10-25T07:51:19.201Z,63.76
2022-10-25T07:52:17.608Z,63.82
2022-10-25T07:53:19.223Z,63.82
2022-10-25T07:54:19.188Z,63.67
2022-10-25T07:55:17.602Z,63.92
2022-10-25T07:56:20.651Z,63.76
2022-10-25T07:57:17.597Z,63.82
2022-10-25T07:58:17.603Z,63.85
2022-10-25T07:59:18.693Z,64.15
2022-10-25T08:00:19.186Z,63.85
2022-10-25T08:01:17.628Z,63.76
2022-10-25T08:02:21.807Z,64.31
2022-10-25T08:03:19.339Z,64.43
2022-10-25T08:04:18.760Z,63.85
2022-10-25T08:05:17.596Z,63.67
2022-10-25T08:06:17.572Z,63.37
2022-10-25T08:07:17.574Z,63.47
2022-10-25T08:08:17.573Z,63.37
2022-10-25T08:09:36.915Z,64.24
2022-10-25T08:10:18.572Z,63.47
2022-10-25T08:11:19.196Z,63.67
2022-10-25T08:12:22.557Z,63.95
2022-10-25T08:13:19.222Z,63.57
2022-10-25T08:14:19.294Z,63.57
2022-10-25T08:15:17.538Z,63.95
2022-10-25T08:16:19.204Z,63.47
2022-10-25T08:17:19.204Z,64.05
2022-10-25T08:18:19.194Z,63.57
2022-10-25T08:19:18.536Z,63.47
2022-10-25T08:20:19.233Z,63.57
2022-10-25T08:21:17.522Z,64.15
2022-10-25T08:22:17.530Z,64.05
2022-10-25T08:23:17.539Z,63.57
2022-10-25T08:25:17.522Z,64.24
2022-10-25T08:26:19.224Z,63.28
2022-10-25T08:27:17.511Z,64.05
2022-10-25T08:28:17.525Z,63.57
2022-10-25T08:29:17.519Z,63.28
2022-10-25T08:30:19.223Z,63.95
2022-10-25T08:31:19.277Z,63.57
2022-10-25T08:32:19.208Z,63.18
2022-10-25T08:33:17.488Z,63.18
2022-10-25T08:34:19.236Z,64.05
2022-10-25T08:35:17.503Z,63.47
2022-10-25T08:36:17.494Z,63.47
2022-10-25T08:37:17.521Z,63.37
2022-10-25T08:38:19.241Z,63.79
2022-10-25T08:39:17.586Z,63.60
2022-10-25T08:40:19.269Z,63.31
2022-10-25T08:41:17.531Z,63.50
2022-10-25T08:42:18.473Z,63.50
2022-10-25T08:43:18.471Z,63.79
2022-10-25T08:44:17.468Z,63.60
2022-10-25T08:45:19.240Z,63.60
2022-10-25T08:46:19.242Z,63.79
2022-10-25T08:47:17.464Z,63.40
2022-10-25T08:48:19.231Z,63.60
2022-10-25T08:49:17.460Z,63.50
2022-10-25T08:50:19.327Z,63.60
2022-10-25T08:51:18.750Z,63.12
2022-10-25T08:52:19.226Z,63.60
2022-10-25T08:53:17.447Z,63.40
2022-10-25T08:54:19.245Z,63.70
2022-10-25T08:55:18.448Z,63.89
2022-10-25T08:56:19.288Z,63.40
2022-10-25T08:57:19.289Z,63.89
2022-10-25T08:58:19.229Z,63.31
2022-10-25T08:59:17.473Z,63.60
2022-10-25T09:00:17.461Z,63.31
2022-10-25T09:01:19.329Z,63.50
2022-10-25T09:02:17.614Z,63.50
2022-10-25T09:03:17.435Z,63.70
2022-10-25T09:04:18.426Z,63.92
2022-10-25T09:05:18.429Z,62.76
2022-10-25T09:06:18.760Z,62.76
2022-10-25T09:07:17.428Z,62.86
2022-10-25T09:08:17.417Z,63.05
2022-10-25T09:09:19.253Z,63.73
2022-10-25T09:10:18.871Z,63.63
2022-10-25T09:11:17.426Z,63.05
2022-10-25T09:12:17.416Z,62.86
2022-10-25T09:13:17.406Z,62.95
2022-10-25T09:14:17.421Z,63.05
2022-10-25T09:15:19.278Z,63.34
2022-10-25T09:16:17.404Z,63.82
2022-10-25T09:17:19.279Z,63.24
2022-10-25T09:18:19.251Z,63.53
2022-10-25T09:19:19.263Z,63.53
2022-10-25T09:20:18.466Z,63.34
2022-10-25T09:21:22.633Z,63.43
2022-10-25T09:22:19.273Z,63.15
2022-10-25T09:23:19.294Z,62.86
2022-10-25T09:24:19.283Z,62.76
2022-10-25T09:25:19.320Z,62.95
2022-10-25T09:26:17.383Z,63.43
2022-10-25T09:27:19.263Z,62.86
2022-10-25T09:28:19.278Z,63.05
2022-10-25T09:29:19.296Z,63.43
2022-10-25T09:30:19.328Z,62.76
2022-10-25T09:31:17.374Z,62.76
2022-10-25T09:32:19.262Z,63.53
2022-10-25T09:33:19.286Z,62.66
2022-10-25T09:34:19.283Z,62.76
2022-10-25T09:35:19.285Z,62.66
2022-10-25T09:36:19.282Z,63.05
2022-10-25T09:37:19.279Z,62.95
2022-10-25T09:38:19.283Z,63.05
2022-10-25T09:39:19.285Z,63.05
2022-10-25T09:40:17.467Z,62.95
2022-10-25T09:41:17.361Z,63.43
2022-10-25T09:42:17.373Z,63.15
2022-10-25T09:43:19.282Z,62.86
2022-10-25T09:44:17.400Z,63.43
2022-10-25T09:45:19.306Z,63.34
2022-10-25T09:46:17.354Z,63.43
2022-10-25T09:47:19.273Z,62.66
2022-10-25T09:48:19.331Z,62.66
2022-10-25T09:49:19.286Z,62.66
2022-10-25T09:50:17.347Z,63.43
2022-10-25T09:51:19.286Z,63.24
2022-10-25T09:52:18.338Z,62.86
2022-10-25T09:53:21.867Z,63.05
2022-10-25T09:54:19.286Z,62.95
2022-10-25T09:55:19.298Z,62.86
2022-10-25T09:56:17.349Z,62.76
2022-10-25T09:57:17.350Z,63.24
2022-10-25T09:58:17.356Z,63.24
2022-10-25T09:59:17.323Z,63.34
2022-10-25T10:00:19.308Z,63.15
2022-10-25T10:01:17.454Z,62.86
2022-10-25T10:02:17.466Z,62.76
2022-10-25T10:13:28.362Z,62.18
2022-10-25T10:14:28.303Z,62.86
2022-10-25T10:15:28.341Z,62.28
2022-10-25T10:16:26.726Z,62.28
2022-10-25T10:17:28.313Z,62.18
2022-10-25T10:18:28.350Z,62.18
2022-10-25T10:19:28.340Z,61.89
2022-10-25T10:20:28.411Z,62.08
2022-10-25T10:21:28.371Z,61.99
2022-10-25T10:22:28.359Z,62.86
2022-10-25T10:23:28.319Z,62.28
2022-10-25T10:24:26.674Z,62.70
2022-10-25T10:25:28.322Z,62.57
2022-10-25T10:26:28.334Z,62.18
2022-10-25T10:27:28.320Z,62.66
2022-10-25T10:28:28.326Z,62.21
2022-10-25T10:29:28.337Z,62.40
2022-10-25T10:30:28.341Z,62.60
2022-10-25T10:31:28.378Z,62.50
2022-10-25T10:32:28.362Z,62.60
2022-10-25T10:33:28.338Z,62.31
2022-10-25T10:34:28.336Z,62.89
2022-10-25T10:35:28.334Z,62.31
2022-10-25T10:36:28.389Z,62.50
2022-10-25T10:37:28.354Z,62.12
2022-10-25T10:38:28.333Z,62.50
2022-10-25T10:39:28.363Z,62.89
2022-10-25T10:40:28.324Z,63.02
2022-10-25T10:41:28.348Z,62.31
2022-10-25T10:42:28.403Z,62.34
2022-10-25T10:43:28.350Z,62.15
2022-10-25T10:44:28.362Z,62.24
2022-10-25T10:45:28.350Z,62.44
2022-10-25T10:46:28.357Z,62.92
2022-10-25T10:47:28.341Z,62.15
2022-10-25T10:48:28.335Z,62.63
2022-10-25T10:49:28.356Z,62.73
2022-10-25T10:50:28.332Z,62.24
2022-10-25T10:51:45.019Z,62.15
2022-10-25T10:52:28.366Z,62.53
2022-10-25T10:53:28.360Z,62.15
2022-10-25T10:54:28.356Z,62.44
2022-10-25T10:55:28.347Z,62.08
2022-10-25T10:56:28.352Z,62.18
2022-10-25T10:57:28.351Z,62.18
2022-10-25T10:58:28.352Z,62.37
2022-10-25T10:59:28.382Z,62.37
2022-10-25T11:00:28.365Z,62.18
2022-10-25T11:01:28.493Z,62.18
2022-10-25T11:02:28.638Z,62.37
2022-10-25T11:03:28.366Z,62.08
2022-10-25T11:04:26.616Z,62.40
2022-10-25T11:05:26.632Z,62.59
2022-10-25T11:06:26.658Z,62.50
2022-10-25T11:07:26.637Z,62.30
2022-10-25T11:08:28.364Z,62.30
2022-10-25T11:09:26.616Z,62.50
2022-10-25T11:10:28.401Z,62.50
2022-10-25T11:11:28.377Z,62.40
2022-10-25T11:12:26.626Z,62.50
2022-10-25T11:13:26.611Z,62.59
2022-10-25T11:14:26.608Z,62.69
2022-10-25T11:15:29.381Z,62.79
2022-10-25T11:16:28.151Z,61.85
2022-10-25T11:17:26.737Z,62.14
2022-10-25T11:18:28.387Z,62.14
2022-10-25T11:19:26.634Z,61.95
2022-10-25T11:20:28.370Z,61.85
2022-10-25T11:21:28.395Z,61.95
2022-10-25T11:22:32.178Z,61.66
2022-10-25T11:23:28.395Z,61.76
2022-10-25T11:24:28.368Z,62.14
2022-10-25T11:25:28.370Z,61.88
2022-10-25T11:26:28.390Z,61.98
2022-10-25T11:27:30.795Z,61.59
2022-10-25T11:28:28.400Z,61.59
2022-10-25T11:29:28.379Z,61.79
2022-10-25T11:30:28.400Z,62.07
2022-10-25T11:31:28.407Z,62.07
2022-10-25T11:32:26.654Z,61.88
2022-10-25T11:33:28.663Z,61.98
2022-10-25T11:34:28.395Z,61.69
2022-10-25T11:35:30.839Z,61.59
2022-10-25T11:36:26.615Z,61.30
2022-10-25T11:37:26.614Z,61.69
2022-10-25T11:38:26.616Z,61.49
2022-10-25T11:39:28.479Z,61.59
2022-10-25T11:40:28.437Z,61.62
2022-10-25T11:41:28.398Z,61.33
2022-10-25T11:42:29.889Z,61.62
2022-10-25T11:43:28.413Z,61.62
2022-10-25T11:44:29.898Z,61.33
2022-10-25T11:45:28.403Z,61.14
2022-10-25T11:46:28.418Z,61.14
2022-10-25T11:47:28.408Z,61.36
2022-10-25T11:48:28.393Z,61.46
2022-10-25T11:49:28.508Z,61.26
2022-10-25T11:50:28.420Z,61.36
2022-10-25T11:51:28.396Z,61.07
2022-10-25T11:52:28.425Z,61.36
2022-10-25T11:53:28.425Z,60.88
2022-10-25T11:54:28.399Z,60.97
2022-10-25T11:55:28.433Z,61.26
2022-10-25T11:56:28.426Z,60.97
2022-10-25T11:57:28.398Z,60.78
2022-10-25T11:58:28.417Z,60.42
2022-10-25T11:59:28.414Z,60.61
2022-10-25T12:00:28.440Z,60.45
2022-10-25T12:01:28.474Z,60.45
2022-10-25T12:02:28.475Z,60.45
2022-10-25T12:03:28.438Z,60.74
2022-10-25T12:04:29.541Z,60.64
2022-10-25T12:05:28.544Z,60.55
2022-10-25T12:06:28.439Z,60.16
2022-10-25T12:07:26.648Z,60.35
2022-10-25T12:08:26.645Z,59.97
2022-10-25T12:09:26.673Z,59.77
2022-10-25T12:10:28.442Z,59.97
2022-10-25T12:11:28.418Z,59.87
2022-10-25T12:12:28.424Z,59.77
2022-10-25T12:13:28.423Z,59.80
2022-10-25T12:14:28.438Z,59.61
2022-10-25T12:15:28.426Z,59.41
2022-10-25T12:16:28.448Z,59.70
2022-10-25T12:17:28.462Z,59.05
2022-10-25T12:18:28.424Z,59.15
2022-10-25T12:19:28.438Z,58.59
2022-10-25T12:20:28.530Z,58.59
2022-10-25T12:21:28.552Z,58.40
2022-10-25T12:22:28.429Z,58.33
2022-10-25T12:23:26.658Z,58.04
2022-10-25T12:24:26.700Z,58.14
2022-10-25T12:25:28.466Z,58.46
2022-10-25T12:26:26.716Z,58.17
2022-10-25T12:27:26.690Z,57.90
2022-10-25T12:28:26.671Z,57.51
2022-10-25T12:29:26.695Z,57.42
2022-10-25T12:30:28.450Z,57.35
2022-10-25T12:31:26.702Z,57.06
2022-10-25T12:32:28.481Z,57.09
2022-10-25T12:33:28.454Z,57.09
2022-10-25T12:34:26.700Z,56.99
2022-10-25T12:35:26.705Z,56.86
2022-10-25T12:36:26.716Z,57.06
2022-10-25T12:37:26.863Z,57.09
2022-10-25T12:38:28.464Z,57.28
2022-10-25T12:39:26.702Z,56.89
2022-10-25T12:40:26.712Z,56.72
2022-10-25T12:41:26.707Z,56.14
2022-10-25T12:42:29.471Z,56.07
2022-10-25T12:43:26.715Z,56.23
2022-10-25T12:44:28.475Z,56.23
2022-10-25T12:45:27.731Z,56.92
2022-10-25T12:46:26.726Z,56.30
2022-10-25T12:47:29.441Z,56.40
2022-10-25T12:48:28.475Z,56.79
2022-10-25T12:49:27.761Z,56.79
2022-10-25T12:50:28.488Z,56.57
2022-10-25T12:51:26.785Z,56.57
2022-10-25T12:52:28.460Z,56.57
2022-10-25T12:53:27.881Z,56.37
2022-10-25T12:54:29.467Z,55.99
2022-10-25T12:55:27.756Z,56.09
2022-10-25T12:56:28.492Z,56.37
2022-10-25T12:57:29.483Z,56.18
2022-10-25T12:58:27.760Z,56.37
2022-10-25T12:59:28.502Z,56.27
2022-10-25T13:00:26.768Z,55.99
2022-10-25T13:01:28.518Z,55.50
2022-10-25T13:02:28.483Z,56.40
2022-10-25T13:03:26.777Z,56.04
2022-10-25T13:04:28.496Z,56.04
2022-10-25T13:05:26.781Z,55.75
2022-10-25T13:06:28.499Z,55.26
2022-10-25T13:07:26.797Z,54.97
2022-10-25T13:08:28.494Z,55.75
2022-10-25T13:09:27.345Z,54.99
2022-10-25T13:11:26.812Z,55.09
2022-10-25T13:12:28.499Z,54.34
2022-10-25T13:13:28.487Z,55.02
2022-10-25T13:14:28.494Z,54.60
2022-10-25T13:15:28.514Z,55.22
2022-10-25T13:16:28.535Z,54.83
2022-10-25T13:17:28.596Z,54.73
2022-10-25T13:18:28.489Z,54.66
2022-10-25T13:19:56.218Z,54.46
2022-10-25T13:20:28.492Z,53.88
2022-10-25T13:21:28.532Z,54.00
2022-10-25T13:22:28.670Z,53.91
2022-10-25T13:23:28.498Z,53.71
2022-10-25T13:24:28.495Z,53.81
2022-10-25T13:25:28.607Z,53.81
2022-10-25T13:26:28.543Z,53.54
2022-10-25T13:27:28.499Z,53.15
2022-10-25T13:28:31.453Z,53.34
2022-10-25T13:29:28.514Z,53.05
2022-10-25T13:30:28.508Z,52.78
2022-10-25T13:31:28.558Z,53.27
2022-10-25T13:32:28.526Z,53.37
2022-10-25T13:33:28.502Z,52.78
2022-10-25T13:34:28.507Z,52.78
2022-10-25T13:35:28.547Z,53.17
2022-10-25T13:36:28.531Z,53.10
2022-10-25T13:37:28.511Z,52.71
2022-10-25T13:38:28.517Z,52.42
2022-10-25T13:39:28.529Z,52.51
2022-10-25T13:40:26.909Z,52.42
2022-10-25T13:41:28.653Z,52.42
2022-10-25T13:42:26.919Z,51.73
2022-10-25T13:43:26.933Z,52.32
2022-10-25T13:44:28.545Z,52.03
2022-10-25T13:45:31.278Z,52.12
2022-10-25T13:46:28.565Z,52.12
2022-10-25T13:47:28.538Z,51.93
2022-10-25T13:48:28.537Z,52.03
2022-10-25T13:49:28.533Z,51.93
2022-10-25T13:50:28.541Z,51.73
2022-10-25T13:51:28.552Z,52.03
2022-10-25T13:52:28.543Z,51.93
2022-10-25T13:53:28.531Z,51.71
2022-10-25T13:54:28.543Z,52.20
2022-10-25T13:55:28.533Z,51.90
2022-10-25T13:56:28.562Z,52.37
2022-10-25T13:57:28.585Z,52.27
2022-10-25T13:58:30.548Z,52.08
2022-10-25T13:59:27.001Z,52.17
2022-10-25T14:00:28.663Z,52.20
2022-10-25T14:01:28.706Z,51.98
2022-10-25T14:02:27.058Z,52.15
2022-10-25T14:03:27.067Z,52.51
2022-10-25T14:04:27.023Z,53.09
2022-10-25T14:05:27.032Z,53.00
2022-10-25T14:06:28.564Z,53.00
2022-10-25T14:07:27.032Z,52.12
2022-10-25T14:08:27.050Z,52.51
2022-10-25T14:09:27.073Z,52.12
2022-10-25T14:10:27.054Z,52.78
2022-10-25T14:11:28.569Z,52.87
2022-10-25T14:12:27.050Z,53.07
2022-10-25T14:13:27.076Z,52.29
2022-10-25T14:14:28.590Z,52.09
2022-10-25T14:15:27.074Z,52.29
2022-10-25T14:16:27.062Z,52.09
2022-10-25T14:17:28.591Z,52.48
2022-10-25T14:18:27.061Z,52.29
2022-10-25T14:19:27.075Z,52.29
2022-10-25T14:20:29.060Z,52.95
2022-10-25T14:21:28.593Z,52.63
2022-10-25T14:22:29.064Z,53.11
2022-10-25T14:23:27.097Z,53.21
2022-10-25T14:24:29.083Z,52.99
2022-10-25T14:25:27.112Z,53.28
2022-10-25T14:26:28.097Z,53.58
2022-10-25T14:27:29.123Z,53.28
2022-10-25T14:28:29.115Z,53.06
2022-10-25T14:29:29.122Z,53.94
2022-10-25T14:30:28.106Z,53.42
2022-10-25T14:31:29.065Z,54.01
2022-10-25T14:32:29.091Z,54.30
2022-10-25T14:33:29.076Z,54.47
2022-10-25T14:34:28.613Z,54.08
2022-10-25T14:35:28.139Z,54.76
2022-10-25T14:36:27.132Z,54.83
2022-10-25T14:37:29.076Z,54.15
2022-10-25T14:38:29.123Z,54.83
2022-10-25T14:39:27.131Z,54.61
2022-10-25T14:40:29.123Z,55.00
2022-10-25T14:41:27.155Z,55.19
2022-10-25T14:42:27.136Z,55.29
2022-10-25T14:43:27.141Z,54.68
2022-10-25T14:44:27.150Z,54.97
2022-10-25T14:45:29.118Z,54.88
2022-10-25T14:46:27.137Z,55.33
2022-10-25T14:47:27.151Z,55.43
2022-10-25T14:48:29.101Z,55.63
2022-10-25T14:49:29.087Z,55.14
2022-10-25T14:50:29.107Z,55.89
2022-10-25T14:51:29.099Z,55.99
2022-10-25T14:52:29.149Z,55.79
2022-10-25T14:53:29.134Z,55.60
2022-10-25T14:54:29.107Z,56.25
2022-10-25T14:55:29.125Z,55.38
2022-10-25T14:56:29.115Z,55.28
2022-10-25T14:57:29.103Z,56.05
2022-10-25T14:58:29.130Z,55.74
2022-10-25T14:59:29.145Z,55.74
2022-10-25T15:00:29.195Z,55.64
2022-10-25T15:01:29.239Z,55.93
2022-10-25T15:02:29.128Z,56.00
2022-10-25T15:03:29.136Z,55.81
2022-10-25T15:04:29.113Z,56.00
2022-10-25T15:05:29.119Z,56.29
2022-10-25T15:06:29.118Z,56.00
2022-10-25T15:07:29.147Z,55.58
2022-10-25T15:08:29.129Z,55.68
2022-10-25T15:09:42.431Z,55.98
2022-10-25T15:10:29.135Z,56.36
2022-10-25T15:11:29.159Z,56.26
2022-10-25T15:12:29.125Z,56.14
2022-10-25T15:13:29.125Z,56.04
2022-10-25T15:14:29.115Z,56.34
2022-10-25T15:15:29.152Z,56.04
2022-10-25T15:16:29.145Z,55.85
2022-10-25T15:17:27.161Z,56.24
2022-10-25T15:18:29.137Z,56.30
2022-10-25T15:19:29.126Z,56.02
2022-10-25T15:20:29.124Z,56.21
2022-10-25T15:21:29.142Z,56.30
2022-10-25T15:22:29.142Z,56.60
2022-10-25T15:23:29.126Z,56.30
2022-10-25T15:24:29.127Z,56.47
2022-10-25T15:25:29.126Z,57.15
2022-10-25T15:26:29.183Z,56.57
2022-10-25T15:27:29.150Z,56.86
2022-10-25T15:28:29.131Z,56.76
2022-10-25T15:29:29.132Z,56.47
2022-10-25T15:30:29.165Z,56.37
2022-10-25T15:31:29.138Z,56.47
2022-10-25T15:32:28.658Z,56.37
2022-10-25T15:33:29.151Z,56.54
2022-10-25T15:34:29.150Z,56.54
2022-10-25T15:35:28.662Z,56.83
2022-10-25T15:36:28.152Z,56.93
2022-10-25T15:37:28.658Z,56.93
2022-10-25T15:38:37.093Z,56.73
2022-10-25T15:39:27.138Z,56.93
2022-10-25T15:40:28.682Z,57.12
2022-10-25T15:41:28.655Z,57.12
2022-10-25T15:42:27.153Z,56.61
2022-10-25T15:43:27.215Z,56.99
2022-10-25T15:44:27.138Z,57.09
2022-10-25T15:45:27.133Z,57.09
2022-10-25T15:46:28.660Z,57.19
2022-10-25T15:47:27.148Z,57.09
2022-10-25T15:48:27.155Z,57.09
2022-10-25T15:49:28.700Z,57.29
2022-10-25T15:50:27.120Z,57.48
2022-10-25T15:51:30.182Z,57.57
2022-10-25T15:52:27.118Z,57.64
2022-10-25T15:53:28.183Z,57.45
2022-10-25T15:54:28.678Z,57.84
2022-10-25T15:55:28.124Z,57.64
2022-10-25T15:56:27.130Z,57.74
2022-10-25T15:57:28.681Z,57.93
2022-10-25T15:58:27.125Z,57.74
2022-10-25T15:59:28.698Z,57.64
2022-10-25T16:00:28.701Z,57.93
2022-10-25T16:12:38.654Z,58.00
2022-10-25T16:13:39.603Z,58.00
2022-10-25T16:14:38.613Z,58.00
2022-10-25T16:15:38.614Z,57.68
2022-10-25T16:16:41.130Z,57.59
2022-10-25T16:17:38.623Z,57.68
2022-10-25T16:18:37.039Z,57.78
2022-10-25T16:19:37.006Z,57.87
2022-10-25T16:20:36.993Z,57.87
2022-10-25T16:21:38.613Z,57.97
2022-10-25T16:22:38.670Z,57.97
2022-10-25T16:23:38.637Z,57.97
2022-10-25T16:24:38.626Z,57.87
2022-10-25T16:25:38.683Z,58.26
2022-10-25T16:26:38.627Z,57.97
2022-10-25T16:27:38.634Z,58.17
2022-10-25T16:28:38.629Z,58.26
2022-10-25T16:29:38.666Z,58.17
2022-10-25T16:30:40.537Z,58.26
2022-10-25T16:31:38.626Z,58.17
2022-10-25T16:32:38.639Z,58.36
2022-10-25T16:33:38.638Z,58.17
2022-10-25T16:34:38.641Z,58.17
2022-10-25T16:35:38.684Z,58.52
2022-10-25T16:36:38.646Z,58.42
2022-10-25T16:37:38.643Z,58.04
2022-10-25T16:38:36.955Z,58.42
2022-10-25T16:39:36.949Z,58.52
2022-10-25T16:40:36.937Z,58.42
2022-10-25T16:41:36.955Z,58.23
2022-10-25T16:42:38.657Z,58.52
2022-10-25T16:43:36.915Z,58.52
2022-10-25T16:44:36.930Z,58.62
2022-10-25T16:45:36.936Z,58.62
2022-10-25T16:46:38.658Z,58.91
2022-10-25T16:47:38.660Z,58.52
2022-10-25T16:48:36.918Z,58.81
2022-10-25T16:49:36.896Z,58.62
2022-10-25T16:50:36.937Z,58.62
2022-10-25T16:51:36.915Z,58.52
2022-10-25T16:52:38.659Z,58.91
2022-10-25T16:53:36.898Z,58.72
2022-10-25T16:54:36.887Z,58.62
2022-10-25T16:55:38.645Z,58.62
2022-10-25T16:56:38.166Z,59.10
2022-10-25T16:57:37.011Z,58.52
2022-10-25T16:58:38.658Z,58.62
2022-10-25T16:59:37.868Z,58.62
2022-10-25T17:00:38.740Z,59.39
2022-10-25T17:01:41.226Z,59.10
2022-10-25T17:02:38.650Z,59.39
2022-10-25T17:03:36.871Z,59.39
2022-10-25T17:04:38.656Z,59.48
2022-10-25T17:05:38.679Z,58.52
2022-10-25T17:06:42.416Z,59.20
2022-10-25T17:07:38.665Z,59.30
2022-10-25T17:08:38.677Z,59.00
2022-10-25T17:09:36.858Z,59.10
2022-10-25T17:10:42.489Z,59.20
2022-10-25T17:11:38.669Z,59.27
2022-10-25T17:12:36.864Z,59.10
2022-10-25T17:13:38.204Z,59.20
2022-10-25T17:14:36.830Z,59.36
2022-10-25T17:15:36.842Z,59.07
2022-10-25T17:16:38.708Z,59.10